West Acres, Indiana
Current Conditions -  °F | °C
As of 10:53 PM on Wednesday 26 Nov 2014 (Local Time) from KMIE Reporting Station
Overcast Overcast  
Wind Chill: 21°   Ceiling: 1800
Heat Index: 28°   Visibility: 10mi
Dew Point: 21°   Wind: 7mph
Humidity: 75%   Direction: 20°NNE
Pressure: 30.09"   Gusts: NA
Location:  40.2341°N, 85.4639°W
Report Text: KMIE 270353Z AUTO 02006KT 10SM OVC018 M02/M06 A3009 RMK AO2 SLP197 T10221061
Loading
Personal Weather Stations






























Interactive Weather Map New forecast layout! Learn more

10-Day Weather Forecast

Advertisements
Track Severe Weather on mobile